createdAt,value
2018-02-27T00:02:06.563Z,-10.98
2018-02-27T00:04:35.195Z,-11.03
2018-02-27T00:07:03.520Z,-11.08
2018-02-27T00:09:32.752Z,-11.00
2018-02-27T00:12:01.074Z,-10.94
2018-02-27T00:14:29.424Z,-10.92
2018-02-27T00:16:57.903Z,-10.67
2018-02-27T00:19:26.313Z,-10.55
2018-02-27T00:21:54.644Z,-10.78
2018-02-27T00:24:23.488Z,-10.88
2018-02-27T00:26:51.840Z,-10.91
2018-02-27T00:29:20.169Z,-10.89
2018-02-27T00:31:50.035Z,-11.01
2018-02-27T00:34:18.372Z,-11.11
2018-02-27T00:36:46.709Z,-11.15
2018-02-27T00:39:15.943Z,-11.05
2018-02-27T00:41:44.581Z,-11.02
2018-02-27T00:44:12.903Z,-10.90
2018-02-27T00:46:41.348Z,-10.98
2018-02-27T00:49:10.356Z,-11.27
2018-02-27T00:51:39.419Z,-11.44
2018-02-27T00:54:07.785Z,-11.51
2018-02-27T00:56:36.119Z,-11.67
2018-02-27T00:59:04.439Z,-11.76
2018-02-27T01:01:33.411Z,-11.34
2018-02-27T01:04:01.732Z,-11.46
2018-02-27T01:06:30.061Z,-11.48
2018-02-27T01:08:58.447Z,-11.55
2018-02-27T01:11:27.276Z,-11.63
2018-02-27T01:13:56.361Z,-11.72
2018-02-27T01:16:24.739Z,-11.65
2018-02-27T01:18:53.136Z,-11.66
2018-02-27T01:21:22.224Z,-11.62
2018-02-27T01:23:51.376Z,-11.64
2018-02-27T01:26:19.716Z,-11.78
2018-02-27T01:28:48.052Z,-11.89
2018-02-27T01:31:16.888Z,-11.78
2018-02-27T01:33:45.212Z,-11.78
2018-02-27T01:36:13.529Z,-11.70
2018-02-27T01:38:43.033Z,-11.76
2018-02-27T01:41:11.347Z,-11.77
2018-02-27T01:43:39.692Z,-11.90
2018-02-27T01:46:08.040Z,-11.89
2018-02-27T01:48:36.376Z,-11.94
2018-02-27T01:51:15.484Z,-11.84
2018-02-27T01:53:43.863Z,-11.89
2018-02-27T01:56:12.624Z,-11.88
2018-02-27T01:58:40.963Z,-11.95
2018-02-27T02:01:09.362Z,-11.98
2018-02-27T02:03:37.684Z,-12.14
2018-02-27T02:06:06.016Z,-12.02
2018-02-27T02:08:35.006Z,-11.92
2018-02-27T02:11:03.340Z,-11.56
2018-02-27T02:13:31.671Z,-11.53
2018-02-27T02:16:01.562Z,-11.74
2018-02-27T02:18:29.884Z,-11.94
2018-02-27T02:20:58.673Z,-11.89
2018-02-27T02:23:27.416Z,-11.95
2018-02-27T02:25:55.740Z,-12.11
2018-02-27T02:28:24.300Z,-12.27
2018-02-27T02:30:52.652Z,-12.09
2018-02-27T02:33:21.063Z,-11.80
2018-02-27T02:35:49.533Z,-11.80
2018-02-27T02:38:17.916Z,-11.94
2018-02-27T02:40:46.249Z,-11.96
2018-02-27T02:43:14.705Z,-11.93
2018-02-27T02:45:43.081Z,-11.99
2018-02-27T02:48:11.571Z,-12.03
2018-02-27T02:50:39.904Z,-11.84
2018-02-27T02:53:08.303Z,-11.86
2018-02-27T02:55:36.652Z,-11.93
2018-02-27T02:58:05.060Z,-11.99
2018-02-27T03:00:33.420Z,-12.01
2018-02-27T03:03:01.829Z,-12.18
2018-02-27T03:05:30.226Z,-12.31
2018-02-27T03:07:58.592Z,-12.34
2018-02-27T03:10:27.725Z,-12.14
2018-02-27T03:12:56.264Z,-11.96
2018-02-27T03:15:24.902Z,-12.01
2018-02-27T03:17:53.460Z,-12.13
2018-02-27T03:20:21.908Z,-12.35
2018-02-27T03:22:51.172Z,-12.47
2018-02-27T03:25:19.502Z,-12.57
2018-02-27T03:27:48.404Z,-12.33
2018-02-27T03:30:16.737Z,-12.43
2018-02-27T03:32:45.059Z,-12.34
2018-02-27T03:35:13.801Z,-12.14
2018-02-27T03:37:42.135Z,-11.90
2018-02-27T03:40:10.884Z,-11.91
2018-02-27T03:42:39.266Z,-11.91
2018-02-27T03:45:07.611Z,-11.72
2018-02-27T03:47:35.936Z,-11.76
2018-02-27T03:50:05.065Z,-11.87
2018-02-27T03:52:34.164Z,-11.93
2018-02-27T03:55:02.552Z,-12.11
2018-02-27T03:57:30.872Z,-12.21
2018-02-27T03:59:59.452Z,-11.97
2018-02-27T04:02:27.812Z,-12.12
2018-02-27T04:04:56.143Z,-12.10
2018-02-27T04:07:24.556Z,-12.18
2018-02-27T04:09:53.485Z,-12.26
2018-02-27T04:12:22.584Z,-12.54
2018-02-27T04:14:50.981Z,-12.57
2018-02-27T04:17:19.860Z,-12.57
2018-02-27T04:19:48.185Z,-12.36
2018-02-27T04:22:16.581Z,-12.29
2018-02-27T04:24:44.907Z,-12.32
2018-02-27T04:27:13.242Z,-12.43
2018-02-27T04:29:41.787Z,-12.35
2018-02-27T04:32:10.108Z,-12.09
2018-02-27T04:34:38.432Z,-12.11
2018-02-27T04:37:07.057Z,-12.29
2018-02-27T04:39:35.487Z,-12.20
2018-02-27T04:42:04.090Z,-12.50
2018-02-27T04:44:32.564Z,-12.29
2018-02-27T04:47:00.926Z,-12.39
2018-02-27T04:49:29.264Z,-12.36
2018-02-27T04:51:57.644Z,-12.66
2018-02-27T04:54:26.672Z,-12.54
2018-02-27T04:56:54.993Z,-12.74
2018-02-27T04:59:23.351Z,-12.63
2018-02-27T05:01:51.710Z,-12.58
2018-02-27T05:04:20.038Z,-12.73
2018-02-27T05:06:49.585Z,-12.57
2018-02-27T05:09:17.904Z,-12.60
2018-02-27T05:11:46.277Z,-12.56
2018-02-27T05:14:14.932Z,-12.53
2018-02-27T05:16:43.262Z,-12.64
2018-02-27T05:19:12.124Z,-12.69
2018-02-27T05:21:41.068Z,-12.75
2018-02-27T05:24:09.424Z,-12.86
2018-02-27T05:26:37.751Z,-13.04
2018-02-27T05:29:06.076Z,-12.80
2018-02-27T05:31:34.451Z,-12.74
2018-02-27T05:34:02.793Z,-12.85
2018-02-27T05:36:31.123Z,-12.71
2018-02-27T05:38:59.248Z,-12.67
2018-02-27T05:41:28.160Z,-12.72
2018-02-27T05:43:56.547Z,-12.62
2018-02-27T05:46:24.869Z,-12.72
2018-02-27T05:48:53.984Z,-12.44
2018-02-27T05:51:22.308Z,-12.58
2018-02-27T05:53:51.200Z,-12.55
2018-02-27T05:56:19.541Z,-12.38
2018-02-27T05:58:47.866Z,-12.36
2018-02-27T06:01:16.299Z,-12.35
2018-02-27T06:03:45.104Z,-12.39
2018-02-27T06:06:13.437Z,-12.25
2018-02-27T06:08:41.828Z,-12.18
2018-02-27T06:11:11.002Z,-12.12
2018-02-27T06:13:39.316Z,-12.10
2018-02-27T06:16:07.761Z,-12.06
2018-02-27T06:18:36.121Z,-12.07
2018-02-27T06:21:04.541Z,-12.03
2018-02-27T06:23:32.992Z,-11.86
2018-02-27T06:26:01.335Z,-11.74
2018-02-27T06:28:29.652Z,-11.59
2018-02-27T06:30:58.603Z,-11.52
2018-02-27T06:33:26.924Z,-11.47
2018-02-27T06:35:55.398Z,-11.26
2018-02-27T06:38:24.486Z,-11.10
2018-02-27T06:40:52.812Z,-10.91
2018-02-27T06:43:21.154Z,-10.85
2018-02-27T06:45:49.922Z,-10.83
2018-02-27T06:48:18.261Z,-10.87
2018-02-27T06:50:46.622Z,-10.69
2018-02-27T06:53:15.740Z,-10.58
2018-02-27T06:55:43.875Z,-10.55
2018-02-27T06:58:12.640Z,-10.47
2018-02-27T07:00:40.961Z,-10.30
2018-02-27T07:03:10.059Z,-10.27
2018-02-27T07:05:38.448Z,-10.27
2018-02-27T07:08:07.589Z,-10.14
2018-02-27T07:10:36.800Z,-10.08
2018-02-27T07:13:05.116Z,-9.75
2018-02-27T07:15:34.037Z,-9.79
2018-02-27T07:18:02.488Z,-9.47
2018-02-27T07:20:30.816Z,-9.16
2018-02-27T07:22:59.184Z,-9.27
2018-02-27T07:25:27.509Z,-9.14
2018-02-27T07:27:55.872Z,-8.82
2018-02-27T07:30:24.564Z,-8.42
2018-02-27T07:32:52.740Z,-8.40
2018-02-27T07:35:21.755Z,-8.55
2018-02-27T07:37:51.216Z,-8.02
2018-02-27T07:40:19.528Z,-7.72
2018-02-27T07:42:48.648Z,-7.71
2018-02-27T07:45:16.972Z,-7.92
2018-02-27T07:47:47.258Z,-7.75
2018-02-27T07:50:15.633Z,-7.73
2018-02-27T07:52:44.315Z,-6.89
2018-02-27T07:55:13.217Z,-6.84
2018-02-27T07:57:42.047Z,-6.42
2018-02-27T08:00:10.996Z,-6.38
2018-02-27T08:02:39.312Z,-7.03
2018-02-27T08:05:08.566Z,-6.78
2018-02-27T08:07:36.859Z,-7.03
2018-02-27T08:10:05.235Z,-7.14
2018-02-27T08:12:33.557Z,-7.28
2018-02-27T08:15:02.094Z,-7.25
2018-02-27T08:17:30.452Z,-7.23
2018-02-27T08:19:58.769Z,-6.85
2018-02-27T08:22:27.117Z,-7.13
2018-02-27T08:24:55.704Z,-6.75
2018-02-27T08:27:24.024Z,-6.69
2018-02-27T08:29:52.929Z,-6.54
2018-02-27T08:32:21.296Z,-6.47
2018-02-27T08:34:49.617Z,-6.37
2018-02-27T08:37:17.937Z,-5.66
2018-02-27T08:39:46.377Z,-5.96
2018-02-27T08:42:14.699Z,-6.43
2018-02-27T08:44:43.017Z,-5.72
2018-02-27T08:47:11.410Z,-5.40
2018-02-27T08:49:40.091Z,-4.42
2018-02-27T08:52:08.424Z,-4.95
2018-02-27T08:54:36.739Z,-4.53
2018-02-27T08:57:05.097Z,-4.57
2018-02-27T08:59:34.188Z,-5.01
2018-02-27T09:02:02.616Z,-6.05
2018-02-27T09:04:31.264Z,-6.07
2018-02-27T09:07:00.097Z,-6.25
2018-02-27T09:09:29.259Z,-6.16
2018-02-27T09:11:58.059Z,-6.44
2018-02-27T09:14:26.800Z,-7.04
2018-02-27T09:16:55.124Z,-7.28
2018-02-27T09:19:23.452Z,-7.03
2018-02-27T09:21:51.901Z,-6.79
2018-02-27T09:24:20.619Z,-6.28
2018-02-27T09:26:48.952Z,-6.68
2018-02-27T09:29:17.747Z,-5.78
2018-02-27T09:31:46.235Z,-4.61
2018-02-27T09:34:14.664Z,-4.80
2018-02-27T09:36:43.040Z,-3.87
2018-02-27T09:39:11.363Z,-4.87
2018-02-27T09:41:39.684Z,-4.75
2018-02-27T09:44:08.045Z,-3.46
2018-02-27T09:46:36.407Z,-2.60
2018-02-27T09:49:04.731Z,-3.65
2018-02-27T09:51:33.057Z,-3.88
2018-02-27T09:54:01.406Z,-3.51
2018-02-27T09:56:30.497Z,-3.39
2018-02-27T09:58:59.597Z,-3.87
2018-02-27T10:01:29.896Z,-3.79
2018-02-27T10:03:58.503Z,-4.55
2018-02-27T10:06:27.133Z,-5.41
2018-02-27T10:08:55.699Z,-5.79
2018-02-27T10:11:24.068Z,-6.35
2018-02-27T10:13:52.385Z,-6.39
2018-02-27T10:16:20.700Z,-6.35
2018-02-27T10:18:49.569Z,-5.78
2018-02-27T10:21:17.891Z,-5.71
2018-02-27T10:23:46.204Z,-5.91
2018-02-27T10:26:14.571Z,-6.42
2018-02-27T10:28:42.943Z,-6.19
2018-02-27T10:31:11.257Z,-5.61
2018-02-27T10:33:39.663Z,-5.50
2018-02-27T10:36:07.976Z,-4.84
2018-02-27T10:38:36.605Z,-4.51
2018-02-27T10:41:04.961Z,-4.24
2018-02-27T10:43:33.416Z,-5.06
2018-02-27T10:46:01.731Z,-5.27
2018-02-27T10:48:30.052Z,-5.91
2018-02-27T10:50:58.451Z,-5.54
2018-02-27T10:53:26.763Z,-5.34
2018-02-27T10:55:55.300Z,-5.43
2018-02-27T10:58:23.653Z,-5.70
2018-02-27T11:01:01.880Z,-5.90
2018-02-27T11:03:30.294Z,-5.74
2018-02-27T11:05:58.612Z,-5.65
2018-02-27T11:08:27.692Z,-5.29
2018-02-27T11:10:55.812Z,-4.90
2018-02-27T11:13:24.128Z,-4.70
2018-02-27T11:15:53.402Z,-4.24
2018-02-27T11:18:22.389Z,-4.74
2018-02-27T11:20:50.781Z,-4.98
2018-02-27T11:23:19.136Z,-3.45
2018-02-27T11:25:48.608Z,-4.43
2018-02-27T11:28:16.931Z,-4.45
2018-02-27T11:30:45.291Z,-4.68
2018-02-27T11:33:13.634Z,-4.60
2018-02-27T11:35:41.964Z,-4.97
2018-02-27T11:38:10.304Z,-4.91
2018-02-27T11:40:40.704Z,-5.57
2018-02-27T11:43:09.050Z,-5.89
2018-02-27T11:45:38.320Z,-5.44
2018-02-27T11:48:06.668Z,-5.36
2018-02-27T11:50:35.013Z,-5.38
2018-02-27T11:53:03.328Z,-5.09
2018-02-27T11:55:31.701Z,-4.75
2018-02-27T11:58:00.056Z,-4.74
2018-02-27T12:00:29.439Z,-5.20
2018-02-27T12:02:57.816Z,-5.35
2018-02-27T12:05:26.132Z,-5.10
2018-02-27T12:07:54.604Z,-4.88
2018-02-27T12:10:23.160Z,-5.11
2018-02-27T12:12:51.504Z,-4.84
2018-02-27T12:15:19.809Z,-4.02
2018-02-27T12:17:48.676Z,-4.16
2018-02-27T12:20:18.183Z,-4.00
2018-02-27T12:22:46.509Z,-4.05
2018-02-27T12:25:15.084Z,-3.71
2018-02-27T12:27:43.490Z,-4.25
2018-02-27T12:30:11.894Z,-4.80
2018-02-27T12:32:40.243Z,-4.52
2018-02-27T12:35:08.556Z,-4.93
2018-02-27T12:37:36.868Z,-4.83
2018-02-27T12:40:05.252Z,-3.78
2018-02-27T12:42:33.572Z,-4.43
2018-02-27T12:45:01.889Z,-4.30
2018-02-27T12:47:30.744Z,-4.01
2018-02-27T12:50:00.663Z,-4.19
2018-02-27T12:52:29.146Z,-4.32
2018-02-27T12:54:57.520Z,-4.34
2018-02-27T12:57:26.596Z,-4.18
2018-02-27T12:59:55.500Z,-4.20
2018-02-27T13:02:24.956Z,-4.35
2018-02-27T13:04:53.289Z,-3.77
2018-02-27T13:07:21.608Z,-3.65
2018-02-27T13:09:50.002Z,-3.82
2018-02-27T13:12:18.324Z,-4.15
2018-02-27T13:14:47.400Z,-4.37
2018-02-27T13:17:16.616Z,-4.36
2018-02-27T13:19:44.935Z,-4.02
2018-02-27T13:22:13.252Z,-3.64
2018-02-27T13:24:41.583Z,-3.58
2018-02-27T13:27:09.900Z,-3.52
2018-02-27T13:29:38.371Z,-4.13
2018-02-27T13:32:06.697Z,-3.89
2018-02-27T13:34:35.020Z,-4.24
2018-02-27T13:37:03.478Z,-4.16
2018-02-27T13:39:31.796Z,-4.04
2018-02-27T13:42:00.116Z,-4.07
2018-02-27T13:44:28.464Z,-3.96
2018-02-27T13:46:56.781Z,-4.44
2018-02-27T13:49:25.266Z,-4.39
2018-02-27T13:51:53.500Z,-4.76
2018-02-27T13:54:21.821Z,-4.75
2018-02-27T13:56:50.176Z,-4.65
2018-02-27T13:59:19.247Z,-4.98
2018-02-27T14:01:47.551Z,-4.39
2018-02-27T14:04:16.523Z,-4.18
2018-02-27T14:06:44.852Z,-3.71
2018-02-27T14:09:13.175Z,-3.79
2018-02-27T14:11:41.528Z,-4.58
2018-02-27T14:14:09.898Z,-4.97
2018-02-27T14:16:38.220Z,-5.08
2018-02-27T14:19:07.335Z,-4.48
2018-02-27T14:21:35.660Z,-4.18
2018-02-27T14:24:03.992Z,-4.74
2018-02-27T14:26:32.890Z,-4.85
2018-02-27T14:29:01.177Z,-4.74
2018-02-27T14:31:29.500Z,-4.92
2018-02-27T14:33:57.869Z,-4.70
2018-02-27T14:36:26.210Z,-4.53
2018-02-27T14:38:54.540Z,-4.91
2018-02-27T14:41:22.892Z,-4.75
2018-02-27T14:43:51.232Z,-4.83
2018-02-27T14:46:19.732Z,-4.65
2018-02-27T14:48:48.050Z,-5.20
2018-02-27T14:51:16.385Z,-5.52
2018-02-27T14:53:45.124Z,-5.35
2018-02-27T14:56:13.501Z,-5.70
2018-02-27T14:58:41.820Z,-5.68
2018-02-27T15:01:10.148Z,-5.78
2018-02-27T15:03:38.520Z,-5.56
2018-02-27T15:06:06.843Z,-5.82
2018-02-27T15:08:35.163Z,-5.75
2018-02-27T15:11:03.527Z,-5.83
2018-02-27T15:13:31.844Z,-6.18
2018-02-27T15:16:00.161Z,-5.90
2018-02-27T15:18:28.541Z,-5.79
2018-02-27T15:20:56.872Z,-5.62
2018-02-27T15:23:25.189Z,-5.59
2018-02-27T15:25:53.556Z,-5.95
2018-02-27T15:28:21.923Z,-6.00
2018-02-27T15:30:51.034Z,-5.83
2018-02-27T15:33:19.394Z,-5.91
2018-02-27T15:35:47.724Z,-6.04
2018-02-27T15:38:16.092Z,-6.09
2018-02-27T15:40:44.404Z,-6.04
2018-02-27T15:43:12.720Z,-6.20
2018-02-27T15:45:42.343Z,-6.31
2018-02-27T15:48:10.801Z,-6.22
2018-02-27T15:50:39.900Z,-6.28
2018-02-27T15:53:09.043Z,-6.38
2018-02-27T15:55:38.036Z,-6.39
2018-02-27T15:58:06.353Z,-6.45
2018-02-27T16:00:35.345Z,-6.30
2018-02-27T16:03:03.665Z,-6.42
2018-02-27T16:05:34.095Z,-6.39
2018-02-27T16:08:02.440Z,-6.47
2018-02-27T16:10:30.860Z,-6.49
2018-02-27T16:12:59.884Z,-6.48
2018-02-27T16:15:28.196Z,-6.69
2018-02-27T16:17:56.552Z,-6.73
2018-02-27T16:20:24.917Z,-6.73
2018-02-27T16:22:53.231Z,-6.89
2018-02-27T16:25:21.632Z,-7.02
2018-02-27T16:27:49.984Z,-7.03
2018-02-27T16:30:19.070Z,-7.18
2018-02-27T16:32:48.195Z,-7.24
2018-02-27T16:35:16.541Z,-7.22
2018-02-27T16:37:45.366Z,-7.28
2018-02-27T16:40:13.739Z,-7.32
2018-02-27T16:42:42.563Z,-7.35
2018-02-27T16:45:10.932Z,-7.45
2018-02-27T16:47:39.299Z,-7.56
2018-02-27T16:50:08.468Z,-7.51
2018-02-27T16:52:36.853Z,-7.60
2018-02-27T16:55:05.416Z,-7.67
2018-02-27T16:57:33.645Z,-7.72
2018-02-27T17:00:01.993Z,-7.68
2018-02-27T17:02:30.348Z,-7.75
2018-02-27T17:04:58.689Z,-7.83
2018-02-27T17:07:27.111Z,-7.92
2018-02-27T17:09:56.196Z,-7.98
2018-02-27T17:12:24.558Z,-7.99
2018-02-27T17:14:53.405Z,-7.99
2018-02-27T17:17:21.725Z,-8.08
2018-02-27T17:19:50.868Z,-8.09
2018-02-27T17:22:19.228Z,-8.11
2018-02-27T17:24:47.546Z,-8.14
2018-02-27T17:27:15.864Z,-8.22
2018-02-27T17:29:44.237Z,-8.22
2018-02-27T17:32:12.557Z,-8.30
2018-02-27T17:34:40.884Z,-8.30
2018-02-27T17:37:09.269Z,-8.29
2018-02-27T17:39:37.615Z,-8.41
2018-02-27T17:42:06.300Z,-8.41
2018-02-27T17:44:34.745Z,-8.53
2018-02-27T17:47:03.829Z,-8.59
2018-02-27T17:49:32.196Z,-8.59
2018-02-27T17:52:00.511Z,-8.51
2018-02-27T17:54:28.844Z,-8.60
2018-02-27T17:56:58.614Z,-8.67
2018-02-27T17:59:26.944Z,-8.67
2018-02-27T18:01:55.384Z,-8.61
2018-02-27T18:04:23.776Z,-8.56
2018-02-27T18:06:52.202Z,-8.63
2018-02-27T18:09:22.150Z,-8.78
2018-02-27T18:11:52.110Z,-8.87
2018-02-27T18:14:21.900Z,-8.84
2018-02-27T18:16:50.218Z,-8.82
2018-02-27T18:19:18.393Z,-8.79
2018-02-27T18:21:46.760Z,-8.95
2018-02-27T18:24:15.091Z,-8.98
2018-02-27T18:26:43.408Z,-8.99
2018-02-27T18:29:13.688Z,-9.15
2018-02-27T18:31:42.260Z,-9.15
2018-02-27T18:34:11.300Z,-9.31
2018-02-27T18:36:39.649Z,-9.34
2018-02-27T18:39:08.408Z,-9.49
2018-02-27T18:41:36.731Z,-9.51
2018-02-27T18:44:05.125Z,-9.61
2018-02-27T18:46:33.445Z,-9.51
2018-02-27T18:49:01.782Z,-9.50
2018-02-27T18:51:31.315Z,-9.24
2018-02-27T18:54:00.448Z,-9.27
2018-02-27T18:56:28.800Z,-9.39
2018-02-27T18:58:57.144Z,-9.54
2018-02-27T19:01:25.535Z,-9.65
2018-02-27T19:03:53.877Z,-9.84
2018-02-27T19:06:22.711Z,-9.79
2018-02-27T19:08:51.068Z,-9.74
2018-02-27T19:11:19.388Z,-9.62
2018-02-27T19:13:47.721Z,-9.66
2018-02-27T19:16:16.075Z,-9.61
2018-02-27T19:18:44.387Z,-9.70
2018-02-27T19:21:13.540Z,-9.68
2018-02-27T19:23:42.184Z,-9.74
2018-02-27T19:26:11.356Z,-9.73
2018-02-27T19:28:39.720Z,-9.73
2018-02-27T19:31:08.069Z,-9.62
2018-02-27T19:33:36.417Z,-9.74
2018-02-27T19:36:04.863Z,-9.81
2018-02-27T19:38:33.249Z,-9.82
2018-02-27T19:41:02.497Z,-9.81
2018-02-27T19:43:30.819Z,-9.96
2018-02-27T19:45:59.224Z,-10.08
2018-02-27T19:48:27.634Z,-10.14
2018-02-27T19:50:56.344Z,-10.32
2018-02-27T19:53:24.763Z,-10.39
2018-02-27T19:55:53.075Z,-10.33
2018-02-27T19:58:21.444Z,-10.20
2018-02-27T20:00:49.772Z,-10.16
2018-02-27T20:03:18.275Z,-10.21
2018-02-27T20:05:47.266Z,-10.09
2018-02-27T20:08:16.758Z,-10.31
2018-02-27T20:10:45.425Z,-10.61
2018-02-27T20:13:14.137Z,-10.67
2018-02-27T20:15:42.491Z,-10.79
2018-02-27T20:18:11.732Z,-10.74
2018-02-27T20:20:40.557Z,-10.96
2018-02-27T20:23:14.456Z,-10.91
2018-02-27T20:25:43.656Z,-11.03
2018-02-27T20:28:17.734Z,-10.91
2018-02-27T20:30:46.451Z,-10.81
2018-02-27T20:33:14.800Z,-10.82
2018-02-27T20:35:44.066Z,-11.10
2018-02-27T20:38:12.157Z,-11.40
2018-02-27T20:40:41.744Z,-11.54
2018-02-27T20:43:09.959Z,-11.58
2018-02-27T20:45:38.328Z,-11.61
2018-02-27T20:48:07.012Z,-11.66
2018-02-27T20:50:37.517Z,-11.62
2018-02-27T20:53:05.864Z,-11.44
2018-02-27T20:55:34.233Z,-11.39
2018-02-27T20:58:03.325Z,-11.58
2018-02-27T21:00:32.963Z,-11.83
2018-02-27T21:03:01.292Z,-11.71
2018-02-27T21:05:29.625Z,-11.76
2018-02-27T21:07:58.053Z,-11.87
2018-02-27T21:10:26.974Z,-11.85
2018-02-27T21:12:55.324Z,-11.84
2018-02-27T21:15:23.661Z,-11.94
2018-02-27T21:17:51.986Z,-11.95
2018-02-27T21:20:21.081Z,-12.09
2018-02-27T21:22:50.577Z,-12.10
2018-02-27T21:25:19.785Z,-12.13
2018-02-27T21:27:48.113Z,-12.08
2018-02-27T21:30:16.509Z,-12.10
2018-02-27T21:32:44.836Z,-12.10
2018-02-27T21:35:13.164Z,-12.20
2018-02-27T21:37:41.724Z,-12.36
2018-02-27T21:40:10.121Z,-12.16
2018-02-27T21:42:38.696Z,-12.17
2018-02-27T21:45:07.029Z,-12.16
2018-02-27T21:47:35.433Z,-12.12
2018-02-27T21:50:03.789Z,-12.23
2018-02-27T21:52:32.137Z,-12.52
2018-02-27T21:55:00.371Z,-12.69
2018-02-27T21:57:28.779Z,-12.69
2018-02-27T21:59:57.596Z,-12.45
2018-02-27T22:02:26.738Z,-12.36
2018-02-27T22:04:55.476Z,-12.27
2018-02-27T22:07:23.920Z,-12.33
2018-02-27T22:09:53.233Z,-12.30
2018-02-27T22:12:21.944Z,-12.40
2018-02-27T22:14:51.041Z,-12.50
2018-02-27T22:17:19.373Z,-12.62
2018-02-27T22:19:47.816Z,-12.60
2018-02-27T22:22:15.984Z,-12.63
2018-02-27T22:24:45.083Z,-12.84
2018-02-27T22:27:14.112Z,-12.87
2018-02-27T22:29:42.589Z,-13.04
2018-02-27T22:32:10.918Z,-12.98
2018-02-27T22:34:40.371Z,-12.92
2018-02-27T22:37:08.980Z,-12.84
2018-02-27T22:39:37.777Z,-12.78
2018-02-27T22:42:06.343Z,-12.90
2018-02-27T22:44:35.435Z,-12.88
2018-02-27T22:47:03.560Z,-12.74
2018-02-27T22:49:32.218Z,-12.74
2018-02-27T22:52:00.928Z,-12.82
2018-02-27T22:54:29.362Z,-12.87
2018-02-27T22:56:57.692Z,-12.96
2018-02-27T22:59:26.577Z,-13.09
2018-02-27T23:01:54.910Z,-13.03
2018-02-27T23:04:23.242Z,-13.03
2018-02-27T23:06:52.043Z,-12.87
2018-02-27T23:09:21.338Z,-12.92
2018-02-27T23:11:49.680Z,-13.01
2018-02-27T23:14:18.248Z,-13.14
2018-02-27T23:16:47.188Z,-12.95
2018-02-27T23:19:15.729Z,-13.07
2018-02-27T23:21:44.065Z,-13.13
2018-02-27T23:24:17.856Z,-13.12
2018-02-27T23:26:48.305Z,-13.08
2018-02-27T23:29:18.760Z,-13.07
2018-02-27T23:31:48.163Z,-13.12
2018-02-27T23:34:18.151Z,-13.27
2018-02-27T23:36:46.477Z,-13.33
2018-02-27T23:39:14.796Z,-13.21
2018-02-27T23:41:42.920Z,-13.38
2018-02-27T23:44:11.243Z,-13.54
2018-02-27T23:46:39.604Z,-13.45
2018-02-27T23:49:07.923Z,-13.37
2018-02-27T23:51:37.076Z,-13.29
2018-02-27T23:54:06.169Z,-13.24
2018-02-27T23:56:36.456Z,-13.34
2018-02-27T23:59:04.863Z,-13.47
